Time;durP1;ratioP1;P1;durP2;ratioP2;P2;SDS_P1;SDS_P2;PMS_P1;PMS_P2;Temp;Humidity;BMP_temperature;BMP_pressure;BME280_temperature;BME280_humidity;BME280_pressure;Samples;Min_cycle;Max_cycle;Signal;HPM_P1;HPM_P2
2023/10/18 00:00:19;;;;;;;4.65;2.60;;;;;;;8.99;40.50;100937.81;4965176;28;20058;-72
2023/10/18 00:02:47;;;;;;;4.18;2.25;;;;;;;8.95;40.47;100930.84;4963346;28;20058;-71
2023/10/18 00:05:17;;;;;;;4.80;2.50;;;;;;;8.96;40.22;100932.59;4964450;28;20046;-70
2023/10/18 00:07:45;;;;;;;4.22;2.30;;;;;;;8.96;40.28;100924.41;4963174;28;20065;-72
2023/10/18 00:10:17;;;;;;;4.22;2.30;;;;;;;8.98;40.19;100927.88;4965530;28;20500;-71
2023/10/18 00:12:46;;;;;;;4.13;2.40;;;;;;;8.93;40.53;100921.91;4963698;28;20046;-73
2023/10/18 00:15:15;;;;;;;3.92;2.30;;;;;;;8.94;40.39;100920.91;4966658;28;20057;-72
2023/10/18 00:17:44;;;;;;;4.55;2.45;;;;;;;8.94;40.33;100910.00;4963502;28;20051;-74
2023/10/18 00:20:15;;;;;;;3.20;2.20;;;;;;;8.94;40.52;100914.59;4966042;28;20082;-72
2023/10/18 00:22:44;;;;;;;4.28;2.20;;;;;;;8.93;40.16;100913.72;4965646;28;20367;-73
2023/10/18 00:25:15;;;;;;;4.28;2.70;;;;;;;8.94;40.13;100909.13;4964996;28;20074;-71
2023/10/18 00:27:45;;;;;;;3.47;2.28;;;;;;;8.93;40.44;100919.19;4964584;28;20054;-70
2023/10/18 00:30:14;;;;;;;3.67;2.30;;;;;;;8.94;40.11;100912.72;4987246;28;20522;-73
2023/10/18 00:32:42;;;;;;;4.05;2.15;;;;;;;8.92;40.03;100909.25;4961333;28;20578;-73
2023/10/18 00:35:18;;;;;;;4.65;2.40;;;;;;;8.92;40.25;100909.25;4963214;28;20051;-73
2023/10/18 00:37:49;;;;;;;3.67;2.17;;;;;;;8.90;40.24;100914.00;4961806;28;20057;-73
2023/10/18 00:40:33;;;;;;;3.47;2.30;;;;;;;8.90;40.45;100914.00;4963277;28;20142;-72
2023/10/18 00:43:10;;;;;;;4.45;2.40;;;;;;;8.90;40.29;100907.66;4960892;28;20372;-73
2023/10/18 00:45:43;;;;;;;4.07;2.38;;;;;;;8.89;40.40;100901.31;4963572;28;20055;-73
2023/10/18 00:48:13;;;;;;;3.50;2.20;;;;;;;8.88;40.23;100906.91;4961924;28;20070;-73
2023/10/18 00:50:43;;;;;;;4.22;2.65;;;;;;;8.87;40.47;100897.84;4962322;28;20042;-73
2023/10/18 00:53:17;;;;;;;5.25;2.50;;;;;;;8.87;40.33;100900.56;4961578;28;20583;-73
2023/10/18 00:55:48;;;;;;;5.10;2.35;;;;;;;8.88;40.61;100896.84;4962474;28;20166;-73
2023/10/18 00:58:19;;;;;;;3.90;2.22;;;;;;;8.87;40.49;100899.69;4960707;28;20059;-73
2023/10/18 01:00:48;;;;;;;3.30;2.25;;;;;;;8.87;40.37;100897.84;4962350;28;20050;-73
2023/10/18 01:03:28;;;;;;;3.47;2.33;;;;;;;8.88;40.53;100893.25;4961024;28;20046;-74
2023/10/18 01:06:03;;;;;;;3.95;2.30;;;;;;;8.88;40.42;100896.84;4963686;28;20042;-72
2023/10/18 01:08:34;;;;;;;4.38;2.20;;;;;;;8.88;40.82;100891.41;4964440;28;20057;-72
2023/10/18 01:11:06;;;;;;;4.22;2.40;;;;;;;8.89;40.51;100890.41;4961721;28;20110;-71
2023/10/18 01:13:37;;;;;;;4.43;2.20;;;;;;;8.88;40.47;100887.78;4961739;28;20090;-72
2023/10/18 01:16:14;;;;;;;4.13;2.50;;;;;;;8.89;40.80;100890.41;4985936;28;20070;-73
2023/10/18 01:18:43;;;;;;;4.00;2.33;;;;;;;8.87;40.56;100888.78;4961106;28;20109;-74
2023/10/18 01:21:17;;;;;;;4.35;2.30;;;;;;;8.88;40.28;100876.88;4963257;28;20774;-74
2023/10/18 01:23:50;;;;;;;4.72;2.05;;;;;;;8.87;40.47;100875.13;4961577;28;20053;-72
2023/10/18 01:26:23;;;;;;;3.70;2.20;;;;;;;8.87;40.60;100880.59;4962657;28;20106;-72
2023/10/18 01:28:52;;;;;;;5.10;2.33;;;;;;;8.85;40.75;100877.13;4962684;28;20481;-71
2023/10/18 01:31:20;;;;;;;3.40;2.22;;;;;;;8.83;40.37;100863.63;4963633;28;20515;-71
2023/10/18 01:33:50;;;;;;;3.60;2.28;;;;;;;8.84;40.62;100864.47;4961374;28;20421;-72
2023/10/18 01:36:21;;;;;;;4.78;2.30;;;;;;;8.82;40.47;100859.16;4962524;28;20046;-72
2023/10/18 01:38:52;;;;;;;4.97;2.28;;;;;;;8.82;40.73;100855.53;4960116;28;20164;-73
2023/10/18 01:41:26;;;;;;;3.63;2.20;;;;;;;8.80;40.21;100849.34;4961038;28;20065;-73
2023/10/18 01:43:55;;;;;;;4.50;2.40;;;;;;;8.78;40.44;100845.84;4962397;28;20703;-73
2023/10/18 01:46:24;;;;;;;4.45;2.10;;;;;;;8.77;40.33;100847.72;4962924;28;20815;-73
2023/10/18 01:48:52;;;;;;;4.90;2.35;;;;;;;8.76;40.78;100842.38;4961078;28;20046;-74
2023/10/18 01:51:21;;;;;;;3.90;2.40;;;;;;;8.74;40.35;100837.06;4959096;28;20047;-74
2023/10/18 01:53:50;;;;;;;3.65;2.42;;;;;;;8.73;40.35;100843.50;4955944;28;20058;-73
2023/10/18 01:56:21;;;;;;;3.35;2.35;;;;;;;8.71;40.55;100837.31;4960241;28;20130;-74
2023/10/18 01:58:51;;;;;;;4.60;2.40;;;;;;;8.70;40.54;100835.56;4966031;28;20132;-73
2023/10/18 02:01:19;;;;;;;3.75;2.15;;;;;;;8.67;40.48;100833.09;4965884;28;20580;-73
2023/10/18 02:03:49;;;;;;;3.83;2.13;;;;;;;8.66;40.74;100834.97;4966763;28;20503;-73
2023/10/18 02:06:19;;;;;;;3.53;2.40;;;;;;;8.64;40.34;100834.19;4987786;28;20063;-73
2023/10/18 02:08:48;;;;;;;3.45;2.10;;;;;;;8.64;40.73;100830.59;4962585;28;20055;-73
2023/10/18 02:11:16;;;;;;;3.75;2.05;;;;;;;8.63;40.86;100828.84;4965427;28;20066;-73
2023/10/18 02:13:45;;;;;;;4.07;2.30;;;;;;;8.63;40.75;100817.94;4966511;28;21268;-73
2023/10/18 02:16:15;;;;;;;4.60;2.38;;;;;;;8.64;40.80;100816.97;4966928;28;20156;-73
2023/10/18 02:18:46;;;;;;;4.03;2.30;;;;;;;8.63;40.60;100807.03;4962813;28;20057;-72
2023/10/18 02:21:15;;;;;;;3.83;2.20;;;;;;;8.62;40.46;100805.28;4966342;28;20058;-73
2023/10/18 02:23:48;;;;;;;3.47;2.08;;;;;;;8.61;40.55;100809.00;4963985;28;20053;-73
2023/10/18 02:26:30;;;;;;;3.58;2.33;;;;;;;8.59;40.58;100800.94;4962846;28;20062;-72
2023/10/18 02:29:00;;;;;;;4.40;2.30;;;;;;;8.58;40.72;100796.50;4965398;28;20050;-72
2023/10/18 02:31:32;;;;;;;3.70;2.20;;;;;;;8.62;40.48;100795.25;4966588;28;20637;-72
2023/10/18 02:34:04;;;;;;;3.67;2.10;;;;;;;8.60;40.77;100794.50;4965975;28;20368;-72
2023/10/18 02:36:53;;;;;;;4.05;2.42;;;;;;;8.58;40.76;100790.19;4979484;28;20089;-73
2023/10/18 02:39:24;;;;;;;4.78;2.20;;;;;;;8.57;40.68;100789.31;4962574;28;20430;-71
2023/10/18 02:41:53;;;;;;;4.10;2.40;;;;;;;8.57;40.49;100788.44;4965121;28;20053;-73
2023/10/18 02:44:24;;;;;;;3.97;2.30;;;;;;;8.55;40.24;100783.09;4963691;28;20145;-73
2023/10/18 02:46:55;;;;;;;4.80;2.35;;;;;;;8.56;40.91;100782.13;4966020;28;20426;-73
2023/10/18 02:49:27;;;;;;;3.38;2.20;;;;;;;8.55;40.59;100779.50;4963737;28;20145;-72
2023/10/18 02:51:57;;;;;;;4.40;2.50;;;;;;;8.51;40.73;100776.13;4966123;28;20053;-73
2023/10/18 02:54:25;;;;;;;3.78;2.28;;;;;;;8.53;40.64;100773.28;4968636;28;20047;-72
2023/10/18 02:56:55;;;;;;;3.15;2.13;;;;;;;8.52;40.65;100769.69;4951655;28;20047;-72
2023/10/18 02:59:27;;;;;;;4.47;2.30;;;;;;;8.53;41.02;100767.84;4964456;28;20057;-73
2023/10/18 03:02:01;;;;;;;4.20;2.08;;;;;;;8.52;40.94;100766.97;4965348;28;20046;-73
2023/10/18 03:04:34;;;;;;;4.72;2.40;;;;;;;8.50;40.81;100763.53;4988329;28;20055;-73
2023/10/18 03:07:08;;;;;;;4.03;2.20;;;;;;;8.48;40.81;100756.44;4964778;28;20047;-73
2023/10/18 03:09:39;;;;;;;4.53;2.25;;;;;;;8.48;40.79;100756.44;4962021;28;20054;-71
2023/10/18 03:12:13;;;;;;;3.58;2.25;;;;;;;8.48;40.61;100753.72;4943274;28;20147;-73
2023/10/18 03:14:53;;;;;;;4.57;2.38;;;;;;;8.46;40.69;100751.09;4952029;28;20936;-73
2023/10/18 03:17:24;;;;;;;3.58;2.38;;;;;;;8.47;40.83;100751.97;4958891;28;20205;-73
2023/10/18 03:19:55;;;;;;;2.92;2.20;;;;;;;8.45;41.04;100749.38;4946386;28;20101;-72
2023/10/18 03:22:26;;;;;;;3.70;2.20;;;;;;;8.44;41.02;100755.81;4962202;28;20046;-72
2023/10/18 03:24:55;;;;;;;3.50;2.25;;;;;;;8.45;40.79;100756.69;4966439;28;20046;-71
2023/10/18 03:27:24;;;;;;;5.72;2.25;;;;;;;8.46;41.29;100755.69;4962811;28;20043;-73
2023/10/18 03:29:57;;;;;;;3.45;2.00;;;;;;;8.46;41.09;100742.06;4961370;28;20165;-73
2023/10/18 03:32:27;;;;;;;3.47;2.15;;;;;;;8.46;41.22;100740.19;4963144;28;20054;-73
2023/10/18 03:34:56;;;;;;;4.30;2.25;;;;;;;8.46;40.96;100740.19;4965746;28;20069;-73
2023/10/18 03:37:25;;;;;;;4.38;2.38;;;;;;;8.47;41.10;100743.78;4963943;28;20073;-73
2023/10/18 03:39:54;;;;;;;3.88;2.20;;;;;;;8.48;40.89;100737.34;4964305;28;20051;-73
2023/10/18 03:42:31;;;;;;;4.00;2.25;;;;;;;8.47;41.11;100727.44;4960920;28;20206;-71
2023/10/18 03:45:00;;;;;;;3.92;2.40;;;;;;;8.46;41.20;100723.84;4965198;28;20074;-72
2023/10/18 03:47:36;;;;;;;4.88;2.50;;;;;;;8.48;40.93;100727.31;4961900;28;20046;-73
2023/10/18 03:50:08;;;;;;;4.45;2.30;;;;;;;8.47;40.84;100719.25;4962784;28;20058;-72
2023/10/18 03:52:38;;;;;;;4.50;2.17;;;;;;;8.44;41.06;100714.03;4963139;28;20615;-73
2023/10/18 03:55:13;;;;;;;4.78;2.33;;;;;;;8.45;40.75;100707.59;4958646;28;20138;-72
2023/10/18 03:57:42;;;;;;;3.22;2.20;;;;;;;8.43;40.87;100699.53;4956821;28;20062;-72
2023/10/18 04:03:20;;;;;;;3.88;1.90;;;;;;;8.43;40.90;100713.16;4943235;28;20070;-72
2023/10/18 04:05:49;;;;;;;3.75;2.10;;;;;;;8.42;40.86;100706.00;4965804;28;20063;-73
2023/10/18 04:08:18;;;;;;;4.15;2.30;;;;;;;8.42;41.03;100706.00;4954358;28;20069;-73
2023/10/18 04:10:58;;;;;;;4.40;2.50;;;;;;;8.43;41.12;100704.13;4926733;28;20420;-73
2023/10/18 04:13:28;;;;;;;3.83;2.25;;;;;;;8.40;40.81;100697.06;4955109;28;20067;-73
2023/10/18 04:15:59;;;;;;;5.15;2.80;;;;;;;8.40;41.10;100693.47;4924631;28;20700;-72
2023/10/18 04:18:29;;;;;;;3.57;2.40;;;;;;;8.39;40.82;100691.72;4956477;28;20115;-73
2023/10/18 04:20:59;;;;;;;4.40;2.20;;;;;;;8.38;41.00;100688.13;4925678;28;20051;-72
2023/10/18 04:23:27;;;;;;;3.35;1.92;;;;;;;8.37;41.00;100675.50;4926542;28;20515;-73
2023/10/18 04:26:00;;;;;;;5.05;2.40;;;;;;;8.34;40.90;100673.88;4924326;28;20106;-71
2023/10/18 04:28:29;;;;;;;4.30;2.20;;;;;;;8.32;41.04;100670.44;4927048;28;20095;-72
2023/10/18 04:31:00;;;;;;;4.78;2.25;;;;;;;8.33;41.36;100665.84;4927553;28;20062;-72
2023/10/18 04:33:36;;;;;;;4.18;2.25;;;;;;;8.32;40.97;100662.25;4926877;28;20055;-71
2023/10/18 04:36:11;;;;;;;3.83;2.40;;;;;;;8.33;41.27;100652.22;4926748;28;20404;-72
2023/10/18 04:38:44;;;;;;;3.33;2.33;;;;;;;8.28;40.92;100649.84;4924793;28;20065;-72
2023/10/18 04:41:23;;;;;;;3.72;2.42;;;;;;;8.27;40.94;100639.91;4925289;28;20228;-71
2023/10/18 04:43:53;;;;;;;4.10;2.67;;;;;;;8.26;41.06;100640.91;4926236;28;20055;-71
2023/10/18 04:46:26;;;;;;;4.68;2.80;;;;;;;8.26;41.03;100634.59;4927528;28;20059;-72
2023/10/18 04:49:16;;;;;;;3.83;2.30;;;;;;;8.26;41.01;100627.28;4954820;28;20499;-70
2023/10/18 04:51:48;;;;;;;4.90;2.85;;;;;;;8.23;40.97;100622.09;4955021;28;20526;-71
2023/10/18 04:54:18;;;;;;;4.68;2.50;;;;;;;8.22;41.01;100611.31;4924852;28;20712;-72
2023/10/18 04:56:46;;;;;;;4.22;2.55;;;;;;;8.24;40.87;100615.66;4925537;28;20527;-72
2023/10/18 04:59:29;;;;;;;4.70;2.50;;;;;;;8.21;40.81;100605.00;4923732;28;20058;-72
2023/10/18 05:01:57;;;;;;;5.82;2.67;;;;;;;8.18;40.77;100601.63;4925485;28;20047;-71
2023/10/18 05:04:30;;;;;;;4.65;2.30;;;;;;;8.20;41.12;100603.25;4926618;28;20067;-72
2023/10/18 05:07:00;;;;;;;5.43;2.40;;;;;;;8.19;41.10;100611.53;4926254;28;20057;-70
2023/10/18 05:09:34;;;;;;;4.20;2.40;;;;;;;8.20;40.95;100596.94;4919786;28;20066;-70
2023/10/18 05:12:07;;;;;;;4.38;2.30;;;;;;;8.18;41.26;100599.78;4922877;28;21035;-70
2023/10/18 05:14:43;;;;;;;4.65;2.67;;;;;;;8.17;41.06;100594.47;4924406;28;20775;-72
2023/10/18 05:17:18;;;;;;;4.03;2.40;;;;;;;8.17;41.21;100599.94;4922666;28;20523;-72
2023/10/18 05:19:48;;;;;;;4.05;2.58;;;;;;;8.18;41.44;100602.50;4923091;28;20051;-71
2023/10/18 05:22:19;;;;;;;4.28;2.50;;;;;;;8.19;40.99;100603.38;4922946;28;20171;-72
2023/10/18 05:24:55;;;;;;;4.18;2.55;;;;;;;8.17;41.06;100597.19;4947337;28;20051;-71
2023/10/18 05:27:27;;;;;;;4.93;2.70;;;;;;;8.17;41.28;100605.38;4921470;28;20484;-70
2023/10/18 05:29:57;;;;;;;4.23;2.80;;;;;;;8.15;41.30;100599.19;4922490;28;20055;-70
2023/10/18 05:32:47;;;;;;;4.90;2.42;;;;;;;8.17;41.40;100605.38;4928450;28;20323;-72
2023/10/18 05:35:26;;;;;;;3.90;2.40;;;;;;;8.15;41.56;100610.09;4928652;28;20142;-72
2023/10/18 05:38:19;;;;;;;4.03;2.28;;;;;;;8.17;41.35;100605.38;4927183;28;20499;-72
2023/10/18 05:40:55;;;;;;;3.35;2.10;;;;;;;8.14;41.12;100609.22;4927165;28;20061;-72
2023/10/18 05:43:29;;;;;;;4.28;2.75;;;;;;;8.18;41.45;100609.81;4929201;28;20150;-71
2023/10/18 05:46:00;;;;;;;3.40;2.33;;;;;;;8.19;41.38;100601.50;4926534;28;20635;-70
2023/10/18 05:48:31;;;;;;;3.60;2.42;;;;;;;8.20;41.11;100594.19;4931014;28;20051;-74
2023/10/18 05:51:21;;;;;;;3.80;2.45;;;;;;;8.23;41.31;100596.69;4958611;28;20054;-74
2023/10/18 05:54:05;;;;;;;5.07;2.53;;;;;;;8.20;41.20;100591.47;4962108;28;20052;-74
2023/10/18 05:56:33;;;;;;;5.15;2.80;;;;;;;8.21;41.05;100590.50;4931544;28;20056;-73
2023/10/18 06:01:57;;;;;;;5.23;2.40;;;;;;;8.18;41.48;100586.16;4912873;28;20448;-76
2023/10/18 06:04:28;;;;;;;3.63;2.30;;;;;;;8.18;41.46;100580.69;4961225;28;20051;-72
2023/10/18 06:07:04;;;;;;;4.55;2.63;;;;;;;8.20;41.29;100576.00;4928099;28;20055;-73
2023/10/18 06:09:44;;;;;;;4.57;2.53;;;;;;;8.19;41.19;100578.84;4947328;28;20122;-73
2023/10/18 06:12:14;;;;;;;4.20;2.63;;;;;;;8.19;41.21;100581.56;4928008;28;20055;-76
2023/10/18 06:14:44;;;;;;;5.00;2.83;;;;;;;8.20;41.46;100573.25;4930214;28;20157;-72
2023/10/18 06:17:22;;;;;;;5.07;2.50;;;;;;;8.20;41.23;100578.72;4927455;28;20062;-74
2023/10/18 06:19:51;;;;;;;5.82;2.85;;;;;;;8.19;41.16;100574.25;4927196;28;20058;-71
2023/10/18 06:22:38;;;;;;;4.55;2.50;;;;;;;8.19;41.60;100574.25;4929528;28;20142;-73
2023/10/18 06:25:09;;;;;;;4.45;2.95;;;;;;;8.18;41.27;100575.25;4926269;28;20058;-74
2023/10/18 06:27:40;;;;;;;4.05;2.60;;;;;;;8.17;41.13;100573.53;4920252;28;20047;-74
2023/10/18 06:30:14;;;;;;;5.68;3.00;;;;;;;8.18;41.28;100569.78;4921526;28;20099;-73
2023/10/18 06:32:43;;;;;;;4.63;2.80;;;;;;;8.17;41.25;100569.94;4947765;28;20051;-73
2023/10/18 06:35:16;;;;;;;5.18;2.90;;;;;;;8.16;41.20;100563.63;4923416;28;20166;-73
2023/10/18 06:37:45;;;;;;;4.43;2.90;;;;;;;8.15;41.13;100566.47;4922922;28;20051;-73
2023/10/18 06:40:22;;;;;;;5.90;3.03;;;;;;;8.16;41.01;100555.44;4922280;28;20123;-74
2023/10/18 06:42:51;;;;;;;5.55;3.10;;;;;;;8.14;41.12;100554.69;4923486;28;20186;-73
2023/10/18 06:45:19;;;;;;;5.13;2.92;;;;;;;8.14;41.33;100551.97;4922244;28;20253;-73
2023/10/18 06:47:47;;;;;;;5.38;3.20;;;;;;;8.13;41.10;100557.50;4922867;28;20122;-73
2023/10/18 06:50:19;;;;;;;5.47;3.20;;;;;;;8.13;41.17;100557.50;4921513;28;20135;-73
2023/10/18 06:52:53;;;;;;;4.65;3.00;;;;;;;8.12;41.49;100548.47;4925852;28;20047;-72
2023/10/18 06:55:35;;;;;;;5.43;3.20;;;;;;;8.12;41.46;100553.91;4945703;28;20364;-73
2023/10/18 06:58:12;;;;;;;5.07;3.15;;;;;;;8.12;41.45;100545.72;4924160;28;20079;-73
2023/10/18 07:00:46;;;;;;;5.10;3.08;;;;;;;8.13;41.45;100538.44;4951926;28;20075;-73
2023/10/18 07:03:17;;;;;;;5.82;2.88;;;;;;;8.13;41.44;100539.31;4924832;28;20133;-72
2023/10/18 07:05:49;;;;;;;5.35;3.40;;;;;;;8.15;41.54;100531.03;4923172;28;20055;-74
2023/10/18 07:08:25;;;;;;;5.25;2.90;;;;;;;8.18;41.42;100526.16;4953452;28;20111;-73
2023/10/18 07:10:56;;;;;;;5.70;3.08;;;;;;;8.18;41.66;100536.22;4923041;28;20142;-72
2023/10/18 07:13:42;;;;;;;6.30;3.28;;;;;;;8.20;41.56;100528.78;4953007;28;20650;-72
2023/10/18 07:16:14;;;;;;;5.05;2.97;;;;;;;8.22;41.60;100519.50;4922518;28;20051;-73
2023/10/18 07:18:44;;;;;;;6.20;3.13;;;;;;;8.23;41.76;100518.50;4924939;28;20154;-72
2023/10/18 07:21:18;;;;;;;4.68;3.10;;;;;;;8.27;41.89;100519.09;4925804;28;20062;-73
2023/10/18 07:23:53;;;;;;;4.55;3.10;;;;;;;8.29;41.47;100515.25;4925687;28;20507;-72
2023/10/18 07:26:24;;;;;;;4.82;3.05;;;;;;;8.31;41.60;100505.09;4924450;28;20043;-74
2023/10/18 07:28:54;;;;;;;6.43;3.20;;;;;;;8.31;41.67;100491.47;4954280;28;20058;-75
2023/10/18 07:31:27;;;;;;;5.38;3.33;;;;;;;8.33;41.42;100496.78;4925285;28;20072;-73
2023/10/18 07:33:55;;;;;;;5.60;3.25;;;;;;;8.36;41.65;100498.38;4924185;28;20051;-73
2023/10/18 07:36:25;;;;;;;4.82;3.30;;;;;;;8.38;41.48;100493.66;4922179;28;20467;-73
2023/10/18 07:38:56;;;;;;;7.28;3.55;;;;;;;8.41;41.88;100490.69;4924692;28;20177;-73
2023/10/18 07:41:26;;;;;;;4.75;3.25;;;;;;;8.42;41.60;100484.25;4924066;28;20162;-73
2023/10/18 07:43:55;;;;;;;5.78;3.72;;;;;;;8.46;41.64;100488.44;4924879;28;20114;-73
2023/10/18 07:46:25;;;;;;;5.15;3.33;;;;;;;8.48;41.67;100472.81;4923108;28;20083;-73
2023/10/18 07:48:54;;;;;;;5.22;3.42;;;;;;;8.50;41.41;100468.09;4928342;28;20098;-73
2023/10/18 07:51:26;;;;;;;4.82;3.40;;;;;;;8.53;41.36;100473.25;4924467;28;20047;-72
2023/10/18 07:53:57;;;;;;;;;;;;;;;8.30;41.95;100464.31;4925246;28;20051;-73
2023/10/18 07:56:27;;;;;;;5.90;3.30;;;;;;;8.53;41.71;100467.81;4924488;28;19953;-73
2023/10/18 07:59:07;;;;;;;5.05;3.20;;;;;;;8.58;41.54;100463.72;4926397;28;20058;-72
2023/10/18 08:01:51;;;;;;;5.03;3.10;;;;;;;8.62;41.58;100462.44;4926898;28;20082;-73
2023/10/18 08:04:20;;;;;;;4.57;3.03;;;;;;;8.65;41.94;100462.19;4924853;28;20082;-73
2023/10/18 08:06:50;;;;;;;4.70;3.17;;;;;;;8.70;41.76;100459.06;4924595;28;20069;-72
2023/10/18 08:09:20;;;;;;;5.35;3.30;;;;;;;8.75;41.76;100459.53;4945712;28;20839;-73
2023/10/18 08:11:49;;;;;;;5.20;3.30;;;;;;;8.76;41.70;100461.25;4927148;28;20092;-75
2023/10/18 08:14:18;;;;;;;5.63;3.10;;;;;;;8.80;41.77;100457.25;4925424;28;20054;-76
2023/10/18 08:16:54;;;;;;;5.72;3.60;;;;;;;8.84;41.63;100449.66;4924115;28;20521;-73
2023/10/18 08:19:25;;;;;;;5.60;3.70;;;;;;;8.87;41.93;100447.53;4954519;28;20059;-72
2023/10/18 08:24:49;;;;;;;5.10;3.25;;;;;;;8.94;41.51;100435.09;4924608;28;20139;-71
2023/10/18 08:27:18;;;;;;;6.03;3.50;;;;;;;8.99;41.57;100441.03;4923252;28;20427;-71
2023/10/18 08:29:52;;;;;;;5.97;3.72;;;;;;;9.03;41.31;100439.75;4925852;28;20134;-70
2023/10/18 08:32:29;;;;;;;6.18;4.00;;;;;;;9.07;41.34;100429.44;4931462;28;21370;-73
2023/10/18 08:35:06;;;;;;;4.97;3.50;;;;;;;9.09;41.79;100425.56;4957335;28;20062;-74
2023/10/18 08:37:36;;;;;;;5.68;3.97;;;;;;;9.15;41.64;100421.44;4924155;28;20404;-73
2023/10/18 08:40:15;;;;;;;5.95;3.55;;;;;;;9.23;41.10;100426.22;4923408;28;20047;-78
2023/10/18 08:42:51;;;;;;;5.68;3.58;;;;;;;9.26;41.00;100424.06;4922209;28;20050;-74
2023/10/18 08:45:23;;;;;;;5.55;3.60;;;;;;;9.30;41.06;100419.19;4926991;28;20087;-75
2023/10/18 08:47:57;;;;;;;5.45;3.78;;;;;;;9.39;40.86;100418.41;4924503;28;20783;-75
2023/10/18 08:50:32;;;;;;;5.35;3.35;;;;;;;9.42;41.04;100410.78;4926720;28;20118;-75
2023/10/18 08:53:01;;;;;;;5.53;3.60;;;;;;;9.48;41.10;100414.84;4926109;28;20078;-74
2023/10/18 08:58:18;;;;;;;5.90;3.95;;;;;;;9.56;40.82;100404.09;4955923;28;20058;-75
2023/10/18 09:01:05;;;;;;;5.80;3.65;;;;;;;9.61;40.95;100400.94;4957511;28;20408;-74
2023/10/18 09:03:35;;;;;;;6.32;4.18;;;;;;;9.63;40.52;100399.81;4976385;23;20429;-75
2023/10/18 09:06:04;;;;;;;5.75;3.40;;;;;;;9.71;40.27;100402.69;5005113;28;20054;-74
2023/10/18 09:08:37;;;;;;;5.68;3.40;;;;;;;9.76;40.14;100402.25;4985476;28;20673;-74
2023/10/18 09:11:20;;;;;;;5.75;3.90;;;;;;;9.77;40.31;100399.41;5004248;28;20046;-74
2023/10/18 09:16:35;;;;;;;5.57;3.42;;;;;;;9.89;40.18;100396.56;5004226;28;20056;-74
2023/10/18 09:19:03;;;;;;;;;;;;;;;9.69;40.48;100393.78;4985956;28;20611;-74
2023/10/18 09:21:44;;;;;;;5.20;3.08;;;;;;;9.96;40.98;100393.13;5003743;28;19928;-75
2023/10/18 09:24:13;;;;;;;4.80;3.28;;;;;;;10.04;40.67;100390.53;5003629;28;20053;-74
2023/10/18 09:26:44;;;;;;;5.18;3.33;;;;;;;10.12;40.43;100389.81;5002927;28;20844;-74
2023/10/18 09:29:12;;;;;;;5.13;3.13;;;;;;;10.17;40.43;100382.91;5001963;28;20120;-74
2023/10/18 09:31:52;;;;;;;5.90;3.90;;;;;;;10.26;39.21;100389.38;5005837;28;20050;-75
2023/10/18 09:34:23;;;;;;;5.40;3.28;;;;;;;10.27;40.22;100387.50;5003849;28;20060;-74
2023/10/18 09:36:56;;;;;;;5.30;3.20;;;;;;;10.36;39.08;100387.50;4986999;28;20054;-74
2023/10/18 09:39:37;;;;;;;5.45;3.85;;;;;;;10.41;39.54;100374.25;4984814;28;20056;-75
2023/10/18 09:42:12;;;;;;;5.13;3.35;;;;;;;10.45;39.25;100367.50;4986745;28;21181;-75
2023/10/18 09:44:41;;;;;;;5.80;3.45;;;;;;;10.50;40.00;100373.38;5003686;28;20049;-74
2023/10/18 09:47:09;;;;;;;5.70;3.33;;;;;;;10.57;39.49;100380.03;4985589;28;20045;-74
2023/10/18 09:49:40;;;;;;;5.43;4.00;;;;;;;10.62;39.21;100370.53;5003536;28;20041;-74
2023/10/18 09:52:11;;;;;;;6.45;3.80;;;;;;;10.64;39.05;100361.19;4985977;28;20078;-74
2023/10/18 09:54:48;;;;;;;5.53;3.50;;;;;;;10.73;38.47;100363.00;4986168;28;20112;-73
2023/10/18 09:57:23;;;;;;;6.10;3.78;;;;;;;10.76;38.95;100367.31;5004475;28;20102;-74
2023/10/18 09:59:54;;;;;;;5.80;3.58;;;;;;;10.81;38.69;100357.66;5003816;28;21214;-75
2023/10/18 10:02:24;;;;;;;4.70;3.22;;;;;;;10.87;38.75;100348.88;4987318;28;20054;-74
2023/10/18 10:04:54;;;;;;;4.78;3.22;;;;;;;10.92;38.88;100352.00;5004468;28;20046;-74
2023/10/18 10:07:36;;;;;;;6.35;2.97;;;;;;;11.01;38.70;100332.97;4987407;28;20083;-75
2023/10/18 10:10:17;;;;;;;4.80;3.45;;;;;;;11.01;38.52;100336.56;5005295;28;20133;-74
2023/10/18 10:12:49;;;;;;;4.97;3.33;;;;;;;11.10;38.21;100332.94;5004719;28;20506;-75
2023/10/18 10:15:18;;;;;;;5.83;2.97;;;;;;;11.13;38.67;100326.28;4987326;28;20104;-75
2023/10/18 10:17:57;;;;;;;6.13;3.28;;;;;;;11.23;38.05;100327.94;4986831;28;20399;-74
2023/10/18 10:20:31;;;;;;;5.95;3.38;;;;;;;11.30;38.19;100322.75;5006211;28;20060;-75
2023/10/18 10:23:04;;;;;;;4.75;3.20;;;;;;;11.38;38.39;100308.28;4989655;28;20509;-75
2023/10/18 10:25:32;;;;;;;5.38;3.30;;;;;;;11.46;38.67;100301.03;4991061;28;20370;-75
2023/10/18 10:29:09;;;;;;;6.18;3.35;;;;;;;11.51;37.23;100298.69;4989181;28;20050;-74
2023/10/18 10:31:51;;;;;;;4.90;3.17;;;;;;;11.61;37.07;100305.00;5009029;28;20097;-74
2023/10/18 10:34:27;;;;;;;5.03;2.80;;;;;;;11.72;37.40;100285.56;5007376;28;20054;-73
2023/10/18 10:37:06;;;;;;;4.72;3.00;;;;;;;11.80;36.76;100278.47;5006903;28;20148;-74
2023/10/18 10:39:43;;;;;;;4.18;2.67;;;;;;;11.89;38.17;100270.13;5007857;28;20138;-74
2023/10/18 10:42:27;;;;;;;4.57;2.75;;;;;;;11.97;37.83;100253.75;5007506;28;20049;-73
2023/10/18 10:45:02;;;;;;;4.70;2.95;;;;;;;12.07;37.61;100245.44;5007219;28;20216;-75
2023/10/18 10:47:42;;;;;;;4.85;3.40;;;;;;;12.11;37.43;100261.44;4987619;28;20156;-74
2023/10/18 10:50:12;;;;;;;5.38;2.67;;;;;;;12.22;36.84;100243.84;4989790;28;20936;-75
2023/10/18 10:52:44;;;;;;;4.78;2.97;;;;;;;12.28;36.89;100235.00;4989840;28;20520;-74
2023/10/18 10:55:22;;;;;;;5.03;3.30;;;;;;;12.34;34.25;100230.75;4988672;28;20054;-74
2023/10/18 10:57:51;;;;;;;5.05;2.97;;;;;;;12.39;36.62;100215.50;5006031;28;20057;-75
2023/10/18 11:00:36;;;;;;;4.30;2.75;;;;;;;12.45;35.93;100206.63;5005442;28;20053;-75
2023/10/18 11:03:48;;;;;;;5.20;3.05;;;;;;;12.49;35.22;100207.16;5007763;28;20057;-76
2023/10/18 11:06:21;;;;;;;4.60;2.83;;;;;;;12.56;35.84;100196.38;4990685;28;20058;-75
2023/10/18 11:08:51;;;;;;;4.25;2.60;;;;;;;12.58;36.25;100189.72;4989940;28;20551;-75
2023/10/18 11:11:21;;;;;;;6.05;2.55;;;;;;;12.63;35.83;100175.50;5006943;28;20050;-75
2023/10/18 11:13:49;;;;;;;4.88;2.67;;;;;;;12.67;36.25;100179.66;4990320;28;20155;-75
2023/10/18 11:16:20;;;;;;;3.85;2.50;;;;;;;12.70;35.32;100168.38;5006931;28;20729;-73
2023/10/18 11:18:49;;;;;;;4.13;2.60;;;;;;;12.74;35.84;100164.25;5005600;28;20057;-75
2023/10/18 11:21:24;;;;;;;4.45;2.58;;;;;;;12.78;35.76;100157.41;4989054;28;20049;-75
2023/10/18 11:23:57;;;;;;;3.80;2.28;;;;;;;12.82;36.07;100156.91;5007799;28;20046;-75
2023/10/18 11:26:26;;;;;;;;;;;;;;;12.58;36.18;100162.25;5007343;28;20100;-75
2023/10/18 11:28:59;;;;;;;3.67;2.30;;;;;;;12.83;35.71;100158.63;5006583;28;20036;-73
2023/10/18 11:31:28;;;;;;;4.07;2.45;;;;;;;12.91;35.64;100151.44;4988300;28;20058;-74
2023/10/18 11:34:05;;;;;;;3.70;2.40;;;;;;;12.95;33.98;100136.38;4989832;28;20489;-75
2023/10/18 11:36:34;;;;;;;4.15;2.40;;;;;;;12.97;35.22;100140.66;5006356;28;20397;-74
2023/10/18 11:39:17;;;;;;;4.43;2.28;;;;;;;12.98;35.64;100134.13;4988628;28;20412;-74
2023/10/18 11:41:52;;;;;;;3.80;2.40;;;;;;;13.02;34.96;100131.91;4988489;28;20398;-75
2023/10/18 11:44:32;;;;;;;4.20;2.10;;;;;;;13.06;34.89;100134.16;5006550;28;20413;-75
2023/10/18 11:47:11;;;;;;;4.63;2.20;;;;;;;13.07;35.11;100133.13;4986919;28;20053;-74
2023/10/18 11:49:41;;;;;;;4.00;2.22;;;;;;;13.08;35.46;100125.75;4988585;28;20540;-74
2023/10/18 11:52:16;;;;;;;4.20;2.05;;;;;;;13.14;34.17;100114.94;4989496;28;20042;-75
2023/10/18 11:54:47;;;;;;;2.95;1.75;;;;;;;13.15;35.14;100110.28;4988510;28;20727;-74
2023/10/18 11:57:26;;;;;;;3.45;1.88;;;;;;;13.21;33.87;100099.47;4987068;28;20056;-75
2023/10/18 11:59:55;;;;;;;3.25;1.90;;;;;;;13.22;35.05;100100.34;4988066;28;20046;-75
2023/10/18 12:02:28;;;;;;;2.70;1.80;;;;;;;13.28;34.50;100088.69;4989724;28;20733;-74
2023/10/18 12:04:57;;;;;;;3.85;1.80;;;;;;;13.29;34.94;100075.78;5006069;28;20080;-74
2023/10/18 12:07:25;;;;;;;3.55;1.90;;;;;;;13.35;34.40;100075.13;5004630;28;20509;-74
2023/10/18 12:09:54;;;;;;;3.15;1.63;;;;;;;13.38;34.09;100097.59;5005313;28;21198;-75
2023/10/18 12:12:24;;;;;;;3.33;2.10;;;;;;;13.42;33.94;100071.50;5005908;28;20069;-76